Time;durP1;ratioP1;P1;durP2;ratioP2;P2;SDS_P1;SDS_P2;PMS_P1;PMS_P2;Temp;Humidity;BMP_temperature;BMP_pressure;BME280_temperature;BME280_humidity;BME280_pressure;Samples;Min_cycle;Max_cycle;Signal;HPM_P1;HPM_P2
2021/12/28 00:02:16;;;;;;;3.53;3.10;;;;;;;6.59;94.66;95472.84;5054293;28;20541;-68
2021/12/28 00:04:42;;;;;;;5.00;3.40;;;;;;;6.30;95.43;95473.00;5055330;28;20207;-75
2021/12/28 00:07:09;;;;;;;5.00;3.50;;;;;;;6.12;95.85;95464.25;5063119;28;20207;-73
2021/12/28 00:09:35;;;;;;;3.80;3.50;;;;;;;6.06;95.44;95460.38;5058907;28;20206;-71
2021/12/28 00:12:04;;;;;;;3.93;3.63;;;;;;;5.94;95.57;95462.38;5054644;28;20229;-76
2021/12/28 00:14:36;;;;;;;4.20;3.43;;;;;;;5.71;96.80;95453.16;5058404;28;20211;-75
2021/12/28 00:19:46;;;;;;;3.60;3.30;;;;;;;5.64;96.63;95453.84;5043258;28;20183;-71
2021/12/28 00:22:13;;;;;;;5.17;3.63;;;;;;;5.55;97.65;95452.94;5050240;28;20215;-70
2021/12/28 00:24:40;;;;;;;3.90;3.50;;;;;;;5.50;97.62;95452.50;5074897;28;20217;-72
2021/12/28 00:27:07;;;;;;;4.93;4.03;;;;;;;5.45;98.67;95450.34;5074780;28;20215;-72
2021/12/28 00:29:34;;;;;;;3.70;3.40;;;;;;;5.46;97.62;95443.28;5074747;28;20206;-73
2021/12/28 00:32:01;;;;;;;3.87;3.50;;;;;;;5.45;98.32;95439.84;5074273;28;20599;-72
2021/12/28 00:34:27;;;;;;;4.97;3.70;;;;;;;5.41;98.17;95437.66;5074418;28;20207;-72
2021/12/28 00:36:53;;;;;;;3.63;3.33;;;;;;;5.39;98.24;95423.84;5067805;28;20206;-70
2021/12/28 00:39:20;;;;;;;3.83;3.20;;;;;;;5.44;98.27;95411.16;5053552;28;20207;-73
2021/12/28 00:41:46;;;;;;;6.33;3.73;;;;;;;5.40;99.22;95404.53;5054121;28;20693;-73
2021/12/28 00:44:15;;;;;;;3.53;3.33;;;;;;;5.43;99.04;95405.06;5054521;28;20210;-70
2021/12/28 00:46:41;;;;;;;3.83;3.20;;;;;;;5.40;99.50;95399.28;5053942;28;20614;-71
2021/12/28 00:49:08;;;;;;;4.30;3.10;;;;;;;5.41;99.99;95400.94;5054831;28;20294;-67
2021/12/28 00:51:34;;;;;;;3.60;3.30;;;;;;;5.37;99.64;95391.72;5055870;28;20230;-72
2021/12/28 00:54:01;;;;;;;3.93;3.30;;;;;;;5.36;99.33;95395.28;5074755;28;20218;-74
2021/12/28 00:56:27;;;;;;;3.77;3.47;;;;;;;5.35;99.17;95388.41;5077667;28;20210;-75
2021/12/28 00:58:54;;;;;;;3.67;3.23;;;;;;;5.32;99.47;95376.41;5077854;28;20211;-72
2021/12/28 01:01:22;;;;;;;3.70;3.07;;;;;;;5.28;98.93;95371.59;5071964;28;20195;-71
2021/12/28 01:03:48;;;;;;;3.07;2.87;;;;;;;5.15;100.00;95363.19;5057218;28;20195;-77
2021/12/28 01:06:15;;;;;;;3.57;3.27;;;;;;;5.14;100.00;95364.16;5071521;28;20275;-69
2021/12/28 01:08:41;;;;;;;4.83;3.27;;;;;;;5.21;100.00;95371.31;5058776;28;20222;-72
2021/12/28 01:11:07;;;;;;;3.10;2.90;;;;;;;5.25;100.00;95366.63;5059866;28;20234;-69
2021/12/28 01:13:34;;;;;;;4.33;3.33;;;;;;;5.29;100.00;95354.88;5057870;28;20211;-69
2021/12/28 01:16:00;;;;;;;5.17;2.90;;;;;;;5.29;100.00;95354.88;5061322;28;20195;-69
2021/12/28 01:18:28;;;;;;;4.97;3.37;;;;;;;5.28;100.00;95342.78;5078063;28;20214;-69
2021/12/28 01:20:55;;;;;;;3.73;3.43;;;;;;;5.33;100.00;95345.78;5075188;28;20213;-74
2021/12/28 01:23:22;;;;;;;3.70;3.40;;;;;;;5.35;100.00;95338.63;5057930;28;20225;-70
2021/12/28 01:25:49;;;;;;;3.27;2.90;;;;;;;5.31;100.00;95330.22;5057579;28;20222;-70
2021/12/28 01:28:15;;;;;;;4.97;3.93;;;;;;;5.33;100.00;95324.81;5055324;28;20196;-72
2021/12/28 01:30:42;;;;;;;4.93;3.80;;;;;;;5.39;100.00;95324.22;5060071;28;20539;-70
2021/12/28 01:33:09;;;;;;;4.47;4.07;;;;;;;5.40;100.00;95321.47;5067557;28;20203;-69
2021/12/28 01:35:38;;;;;;;4.60;4.13;;;;;;;5.38;100.00;95312.13;5066750;28;20207;-69
2021/12/28 01:38:04;;;;;;;4.93;4.27;;;;;;;5.40;100.00;95307.53;5064170;28;20207;-72
2021/12/28 01:40:35;;;;;;;4.97;3.90;;;;;;;5.44;100.00;95311.53;5058072;28;20207;-68
2021/12/28 01:43:11;;;;;;;4.30;3.90;;;;;;;5.47;100.00;95306.00;5062504;28;20231;-70
2021/12/28 01:45:43;;;;;;;5.57;4.00;;;;;;;5.44;100.00;95306.28;5056066;28;20203;-69
2021/12/28 01:48:14;;;;;;;4.70;3.90;;;;;;;5.51;100.00;95309.97;5067797;28;20280;-70
2021/12/28 01:50:42;;;;;;;5.10;3.87;;;;;;;5.52;100.00;95298.53;5062216;28;20234;-72
2021/12/28 01:53:09;;;;;;;4.20;3.80;;;;;;;5.50;100.00;95301.28;5072304;28;20210;-70
2021/12/28 01:55:37;;;;;;;3.90;3.60;;;;;;;5.48;100.00;95302.41;5077022;28;20217;-70
2021/12/28 01:58:04;;;;;;;4.13;3.73;;;;;;;5.51;100.00;95299.50;5076552;28;20544;-72
2021/12/28 02:00:31;;;;;;;5.13;3.70;;;;;;;5.46;100.00;95297.28;5076764;28;20203;-71
2021/12/28 02:02:58;;;;;;;4.63;3.57;;;;;;;5.47;100.00;95306.81;5069506;28;20204;-68
2021/12/28 02:05:26;;;;;;;3.77;3.40;;;;;;;5.45;100.00;95300.91;5054188;28;20213;-72
2021/12/28 02:07:53;;;;;;;3.07;2.77;;;;;;;5.48;100.00;95297.16;5070145;28;20218;-71
2021/12/28 02:10:20;;;;;;;4.37;2.93;;;;;;;5.40;100.00;95302.28;5053254;28;20226;-69
2021/12/28 02:12:46;;;;;;;3.67;3.13;;;;;;;5.39;100.00;95300.63;5059406;28;20214;-69
2021/12/28 02:15:15;;;;;;;3.63;3.17;;;;;;;5.37;100.00;95285.06;5059259;28;20210;-71
2021/12/28 02:17:42;;;;;;;4.43;3.37;;;;;;;5.34;100.00;95280.13;5070912;28;20230;-69
2021/12/28 02:20:12;;;;;;;4.00;3.10;;;;;;;5.37;100.00;95274.59;5053661;28;20203;-71
2021/12/28 02:22:39;;;;;;;3.73;3.10;;;;;;;5.36;100.00;95266.84;5053803;28;20199;-71
2021/12/28 02:25:07;;;;;;;4.57;3.37;;;;;;;5.34;100.00;95260.94;5052726;28;20231;-72
2021/12/28 02:27:34;;;;;;;3.53;3.10;;;;;;;5.35;100.00;95260.78;5061744;28;20206;-70
2021/12/28 02:30:01;;;;;;;2.70;2.50;;;;;;;5.32;100.00;95255.00;5069714;28;20211;-71
2021/12/28 02:32:29;;;;;;;3.23;2.90;;;;;;;5.26;100.00;95255.59;5056025;28;20227;-70
2021/12/28 02:34:56;;;;;;;3.03;2.80;;;;;;;5.39;100.00;95248.22;5056209;28;20226;-68
2021/12/28 02:37:25;;;;;;;2.70;2.30;;;;;;;5.29;100.00;95239.56;5055708;28;20211;-71
2021/12/28 02:39:52;;;;;;;2.50;2.30;;;;;;;5.28;100.00;95237.94;5055622;28;20199;-70
2021/12/28 02:42:19;;;;;;;4.00;2.20;;;;;;;5.24;100.00;95233.97;5070875;28;20555;-70
2021/12/28 02:44:45;;;;;;;2.40;2.20;;;;;;;5.32;100.00;95242.72;5067484;28;20563;-71
2021/12/28 02:47:17;;;;;;;3.43;2.23;;;;;;;5.32;100.00;95244.53;5061162;28;20241;-71
2021/12/28 02:49:43;;;;;;;2.93;2.13;;;;;;;5.36;100.00;95251.13;5056142;28;20199;-72
2021/12/28 02:52:10;;;;;;;4.00;2.60;;;;;;;5.30;100.00;95231.56;5072756;28;20230;-73
2021/12/28 02:54:38;;;;;;;4.10;2.43;;;;;;;5.31;100.00;95237.66;5056378;28;20531;-73
2021/12/28 02:57:05;;;;;;;3.13;2.43;;;;;;;5.25;100.00;95239.03;5056725;28;20207;-69
2021/12/28 02:59:32;;;;;;;2.47;2.27;;;;;;;5.28;100.00;95233.50;5057168;28;20261;-72
2021/12/28 03:01:59;;;;;;;2.63;2.43;;;;;;;5.26;100.00;95230.22;5075608;28;20214;-68
2021/12/28 03:04:27;;;;;;;2.60;2.40;;;;;;;5.35;100.00;95237.19;5058314;28;20199;-71
2021/12/28 03:06:54;;;;;;;3.00;2.40;;;;;;;5.46;100.00;95247.47;5067063;28;20206;-72
2021/12/28 03:09:21;;;;;;;4.50;2.57;;;;;;;5.44;100.00;95248.63;5073315;28;20199;-69
2021/12/28 03:11:49;;;;;;;3.17;2.07;;;;;;;5.41;100.00;95251.53;5056835;28;20229;-72
2021/12/28 03:14:15;;;;;;;2.57;2.37;;;;;;;5.44;100.00;95251.22;5055291;28;20633;-70
2021/12/28 03:16:41;;;;;;;3.20;2.30;;;;;;;5.43;100.00;95249.56;5054402;28;20235;-73
2021/12/28 03:19:08;;;;;;;2.60;2.40;;;;;;;5.45;100.00;95250.28;5058565;28;20206;-71
2021/12/28 03:21:35;;;;;;;7.43;2.50;;;;;;;5.45;100.00;95247.66;5075606;28;20198;-73
2021/12/28 03:24:02;;;;;;;2.93;2.23;;;;;;;5.51;100.00;95236.56;5074647;28;20218;-73
2021/12/28 03:26:29;;;;;;;3.30;3.00;;;;;;;5.53;100.00;95234.63;5075294;28;20225;-72
2021/12/28 03:28:57;;;;;;;3.57;2.80;;;;;;;5.59;100.00;95244.53;5074642;28;20225;-71
2021/12/28 03:31:23;;;;;;;5.50;3.53;;;;;;;5.61;100.00;95234.72;5065437;28;20229;-69
2021/12/28 03:33:53;;;;;;;4.00;3.70;;;;;;;5.69;100.00;95232.19;5074891;28;20218;-73
2021/12/28 03:36:21;;;;;;;3.90;3.40;;;;;;;5.73;100.00;95232.72;5069549;28;20238;-71
2021/12/28 03:38:48;;;;;;;3.93;3.57;;;;;;;5.74;100.00;95224.69;5055150;28;20218;-69
2021/12/28 03:41:15;;;;;;;4.03;3.50;;;;;;;5.81;100.00;95251.16;5054880;28;20535;-73
2021/12/28 03:43:45;;;;;;;3.27;2.97;;;;;;;5.83;100.00;95260.53;5054820;28;20211;-69
2021/12/28 03:46:13;;;;;;;4.30;3.27;;;;;;;5.82;100.00;95258.03;5054476;28;20274;-72
2021/12/28 03:48:40;;;;;;;3.20;3.00;;;;;;;5.79;100.00;95238.19;5074640;28;20660;-69
2021/12/28 03:51:08;;;;;;;3.30;3.00;;;;;;;5.78;100.00;95236.53;5074507;28;20233;-72
2021/12/28 03:53:34;;;;;;;4.20;3.60;;;;;;;5.80;100.00;95239.03;5074693;28;20210;-69
2021/12/28 03:56:01;;;;;;;3.53;3.23;;;;;;;5.76;100.00;95235.88;5074861;28;20217;-70
2021/12/28 03:58:27;;;;;;;4.07;3.50;;;;;;;5.78;100.00;95243.56;5074332;28;20203;-69
2021/12/28 04:00:54;;;;;;;4.40;3.40;;;;;;;5.81;100.00;95235.44;5058489;28;20219;-70
2021/12/28 04:03:22;;;;;;;4.60;3.40;;;;;;;5.73;100.00;95223.06;5034637;28;20207;-72
2021/12/28 04:05:48;;;;;;;4.23;3.47;;;;;;;5.74;100.00;95240.41;5058472;28;20206;-71
2021/12/28 04:08:22;;;;;;;3.50;3.20;;;;;;;5.80;100.00;95234.59;5054894;28;20210;-67
2021/12/28 04:10:52;;;;;;;3.70;3.40;;;;;;;5.82;100.00;95243.13;5058414;28;20207;-72
2021/12/28 04:13:20;;;;;;;4.00;3.63;;;;;;;5.79;100.00;95232.94;5055104;28;20199;-70
2021/12/28 04:15:47;;;;;;;4.00;3.33;;;;;;;5.77;100.00;95240.16;5054586;28;20215;-73
2021/12/28 04:18:14;;;;;;;4.00;3.10;;;;;;;5.84;100.00;95246.47;5069380;28;20217;-70
2021/12/28 04:20:42;;;;;;;3.47;3.20;;;;;;;5.84;100.00;95256.94;5066228;28;20211;-70
2021/12/28 04:23:08;;;;;;;3.83;3.10;;;;;;;5.84;100.00;95256.94;5057820;28;20210;-68
2021/12/28 04:25:35;;;;;;;4.43;3.70;;;;;;;5.85;100.00;95252.50;5055118;28;20211;-71
2021/12/28 04:28:01;;;;;;;3.87;3.57;;;;;;;5.89;100.00;95262.59;5054561;28;20211;-70
2021/12/28 04:30:28;;;;;;;4.07;3.67;;;;;;;5.85;100.00;95261.19;5057104;28;20210;-70
2021/12/28 04:32:54;;;;;;;3.90;3.60;;;;;;;5.87;100.00;95256.69;5058339;28;20227;-72
2021/12/28 04:35:21;;;;;;;5.07;3.97;;;;;;;5.92;100.00;95269.31;5058327;28;20215;-73
2021/12/28 04:37:48;;;;;;;4.50;4.10;;;;;;;5.89;100.00;95267.84;5063926;28;20210;-72
2021/12/28 04:40:16;;;;;;;3.70;3.50;;;;;;;5.88;100.00;95268.81;5058290;28;20541;-69
2021/12/28 04:42:43;;;;;;;4.30;4.00;;;;;;;5.85;100.00;95271.69;5058227;28;20293;-69
2021/12/28 04:45:10;;;;;;;4.20;3.80;;;;;;;5.85;100.00;95270.84;5057736;28;20528;-71
2021/12/28 04:47:37;;;;;;;4.40;3.80;;;;;;;5.85;100.00;95260.38;5057815;28;20231;-70
2021/12/28 04:50:04;;;;;;;5.40;4.40;;;;;;;5.93;100.00;95258.69;5057766;28;20622;-69
2021/12/28 04:52:35;;;;;;;5.63;4.10;;;;;;;5.96;100.00;95266.28;5057882;28;20231;-69
2021/12/28 04:55:03;;;;;;;4.03;3.63;;;;;;;5.97;100.00;95291.53;5058293;28;20260;-72
2021/12/28 04:57:29;;;;;;;4.27;3.87;;;;;;;5.96;100.00;95287.25;5058156;28;20214;-69
2021/12/28 04:59:56;;;;;;;5.87;4.03;;;;;;;5.98;100.00;95281.88;5057781;28;20222;-71
2021/12/28 05:02:22;;;;;;;4.63;3.70;;;;;;;5.94;100.00;95286.59;5057963;28;20207;-71
2021/12/28 05:04:48;;;;;;;4.30;3.90;;;;;;;6.02;100.00;95279.78;5059784;28;20207;-70
2021/12/28 05:07:15;;;;;;;4.07;3.67;;;;;;;6.10;100.00;95264.94;5065534;28;20211;-73
2021/12/28 05:09:41;;;;;;;3.30;3.10;;;;;;;6.15;100.00;95270.56;5068719;28;20206;-70
2021/12/28 05:12:10;;;;;;;4.10;3.10;;;;;;;6.23;100.00;95264.56;5057229;28;20231;-73
2021/12/28 05:14:40;;;;;;;3.50;3.20;;;;;;;6.25;100.00;95265.22;5054131;28;20269;-70
2021/12/28 05:17:06;;;;;;;3.07;2.63;;;;;;;6.34;100.00;95270.38;5057498;28;20210;-71
2021/12/28 05:19:33;;;;;;;3.13;2.40;;;;;;;6.41;100.00;95247.00;5057609;28;20203;-70
2021/12/28 05:22:00;;;;;;;2.70;2.50;;;;;;;6.52;100.00;95249.38;5070020;28;20256;-71
2021/12/28 05:24:26;;;;;;;2.70;2.50;;;;;;;6.56;100.00;95260.41;5075028;28;20221;-69
2021/12/28 05:26:53;;;;;;;3.37;3.03;;;;;;;6.62;100.00;95271.16;5056947;28;20226;-70
2021/12/28 05:29:21;;;;;;;3.03;2.80;;;;;;;6.62;100.00;95272.94;5057172;28;20207;-72
2021/12/28 05:31:47;;;;;;;3.20;3.00;;;;;;;6.66;100.00;95276.91;5057342;28;20230;-69
2021/12/28 05:34:14;;;;;;;3.50;2.87;;;;;;;6.65;100.00;95260.31;5057353;28;20661;-72
2021/12/28 05:36:40;;;;;;;4.27;3.20;;;;;;;6.66;100.00;95261.16;5057265;28;20263;-71
2021/12/28 05:39:07;;;;;;;3.33;3.03;;;;;;;6.61;100.00;95266.84;5058038;28;20206;-72
2021/12/28 05:41:33;;;;;;;4.53;2.63;;;;;;;6.69;100.00;95261.69;5076870;28;20206;-72
2021/12/28 05:43:59;;;;;;;2.90;2.70;;;;;;;6.70;100.00;95270.34;5057305;28;20222;-71
2021/12/28 05:46:27;;;;;;;3.10;2.67;;;;;;;6.73;100.00;95283.22;5057075;28;20235;-69
2021/12/28 05:48:54;;;;;;;3.37;3.00;;;;;;;6.72;100.00;95281.56;5056939;28;20211;-71
2021/12/28 05:51:20;;;;;;;3.17;2.97;;;;;;;6.68;100.00;95267.91;5069915;28;20536;-71
2021/12/28 05:53:47;;;;;;;2.93;2.60;;;;;;;6.69;100.00;95263.47;5056495;28;20238;-69
2021/12/28 05:56:13;;;;;;;3.43;3.13;;;;;;;6.78;100.00;95268.63;5056915;28;20218;-70
2021/12/28 05:58:40;;;;;;;3.77;2.77;;;;;;;6.80;100.00;95282.41;5063895;28;20198;-70
2021/12/28 06:01:06;;;;;;;3.23;2.90;;;;;;;6.79;100.00;95280.78;5076704;28;20214;-72
2021/12/28 06:03:34;;;;;;;4.67;4.17;;;;;;;6.82;100.00;95275.22;5060408;28;20196;-70
2021/12/28 06:06:01;;;;;;;4.87;4.40;;;;;;;6.81;100.00;95289.34;5066960;28;20207;-72
2021/12/28 06:08:27;;;;;;;4.13;3.77;;;;;;;6.84;100.00;95282.94;5057076;28;20226;-68
2021/12/28 06:10:53;;;;;;;3.40;3.20;;;;;;;6.83;100.00;95266.38;5059736;28;20207;-70
2021/12/28 06:13:23;;;;;;;3.47;3.17;;;;;;;6.74;100.00;95254.16;5062096;28;20242;-68
2021/12/28 06:15:50;;;;;;;3.40;3.10;;;;;;;6.81;100.00;95257.81;5066333;28;20199;-69
2021/12/28 06:18:16;;;;;;;2.97;2.77;;;;;;;6.86;100.00;95259.97;5060159;28;20207;-69
2021/12/28 06:20:44;;;;;;;3.20;2.90;;;;;;;6.86;100.00;95270.50;5077286;28;20199;-72
2021/12/28 06:23:11;;;;;;;3.20;2.83;;;;;;;6.91;100.00;95260.31;5059840;28;20627;-70
2021/12/28 06:25:38;;;;;;;3.40;3.10;;;;;;;6.86;100.00;95263.44;5059589;28;20203;-70
2021/12/28 06:28:05;;;;;;;3.07;2.87;;;;;;;6.86;100.00;95255.56;5076414;28;20221;-70
2021/12/28 06:30:31;;;;;;;3.03;2.80;;;;;;;6.90;100.00;95262.16;5076706;28;20218;-70
2021/12/28 06:32:58;;;;;;;3.40;3.10;;;;;;;6.93;100.00;95267.09;5077058;28;20230;-73
2021/12/28 06:35:25;;;;;;;3.30;3.10;;;;;;;6.93;100.00;95261.00;5077685;28;20221;-70
2021/12/28 06:37:53;;;;;;;3.60;3.30;;;;;;;6.88;100.00;95258.84;5078270;28;20210;-72
2021/12/28 06:40:19;;;;;;;3.80;3.50;;;;;;;6.85;100.00;95248.63;5062107;28;20218;-72
2021/12/28 06:42:46;;;;;;;2.90;2.70;;;;;;;6.93;100.00;95240.81;5057728;28;20195;-73
2021/12/28 06:45:12;;;;;;;3.37;3.13;;;;;;;6.94;100.00;95242.44;5057793;28;20206;-72
2021/12/28 06:47:39;;;;;;;3.53;3.23;;;;;;;6.89;100.00;95243.91;5055514;28;20235;-72
2021/12/28 06:50:07;;;;;;;3.77;3.47;;;;;;;7.08;99.36;95245.50;5055982;28;20210;-69
2021/12/28 06:52:34;;;;;;;3.40;3.20;;;;;;;7.16;98.83;95250.78;5055566;28;20547;-72
2021/12/28 06:55:02;;;;;;;3.17;2.93;;;;;;;7.14;98.83;95265.91;5073906;28;20308;-70
2021/12/28 06:57:28;;;;;;;3.07;2.87;;;;;;;7.16;99.58;95271.81;5056411;28;20211;-72
2021/12/28 06:59:55;;;;;;;3.13;2.93;;;;;;;7.14;99.80;95269.34;5055708;28;20630;-72
2021/12/28 07:02:21;;;;;;;3.10;2.90;;;;;;;7.13;100.00;95265.06;5066263;28;20210;-70
2021/12/28 07:04:48;;;;;;;3.20;2.90;;;;;;;7.21;99.84;95259.03;5046070;28;20211;-70
2021/12/28 07:07:14;;;;;;;3.00;2.80;;;;;;;7.20;99.16;95260.84;5063799;28;20218;-68
2021/12/28 07:09:41;;;;;;;2.93;2.73;;;;;;;7.22;99.27;95258.91;5053653;28;20214;-71
2021/12/28 07:12:10;;;;;;;2.50;2.40;;;;;;;7.24;99.75;95251.66;5068344;28;20226;-71
2021/12/28 07:14:37;;;;;;;2.83;2.63;;;;;;;7.18;99.42;95249.66;5075505;28;20202;-72
2021/12/28 07:17:04;;;;;;;3.20;2.77;;;;;;;7.20;98.74;95254.75;5062159;28;20261;-70
2021/12/28 07:19:30;;;;;;;2.67;2.57;;;;;;;7.24;98.87;95253.47;5042015;28;20214;-71
2021/12/28 07:21:57;;;;;;;2.60;2.40;;;;;;;7.36;97.68;95241.69;5055107;28;20210;-70
2021/12/28 07:24:23;;;;;;;2.90;2.70;;;;;;;7.38;96.78;95244.97;5055004;28;20207;-69
2021/12/28 07:26:50;;;;;;;2.83;2.63;;;;;;;7.34;96.84;95264.69;5055475;28;20222;-70
2021/12/28 07:29:18;;;;;;;2.67;2.47;;;;;;;7.35;97.20;95259.28;5059782;28;20206;-69
2021/12/28 07:31:44;;;;;;;2.47;2.30;;;;;;;7.35;97.39;95275.06;5057048;28;20218;-69
2021/12/28 07:34:11;;;;;;;2.77;2.53;;;;;;;7.34;97.98;95260.25;5050603;28;20233;-69
2021/12/28 07:36:37;;;;;;;2.93;2.73;;;;;;;7.31;97.96;95265.00;5064314;28;20226;-72
2021/12/28 07:39:04;;;;;;;3.97;2.77;;;;;;;7.23;96.90;95262.31;5060357;28;20212;-71
2021/12/28 07:41:31;;;;;;;2.80;2.60;;;;;;;7.23;97.47;95265.78;5056223;28;20634;-72
2021/12/28 07:43:58;;;;;;;3.07;2.87;;;;;;;7.31;97.09;95270.25;5077232;28;20210;-72
2021/12/28 07:46:26;;;;;;;2.83;2.63;;;;;;;7.30;97.07;95281.75;5063367;28;20235;-70
2021/12/28 07:48:52;;;;;;;3.37;2.77;;;;;;;7.30;96.58;95279.94;5054306;28;20202;-74
2021/12/28 07:51:19;;;;;;;3.90;3.60;;;;;;;7.25;98.03;95281.41;5083731;28;20203;-70
2021/12/28 07:53:45;;;;;;;2.80;2.60;;;;;;;7.31;97.94;95280.78;5067119;28;20222;-72
2021/12/28 07:56:11;;;;;;;2.67;2.47;;;;;;;7.29;96.52;95267.81;5066684;28;20218;-71
2021/12/28 07:58:38;;;;;;;2.30;2.20;;;;;;;7.35;97.33;95282.13;5065628;28;20210;-71
2021/12/28 08:01:05;;;;;;;3.67;2.63;;;;;;;7.32;97.13;95271.91;5063600;28;20210;-73
2021/12/28 08:03:32;;;;;;;2.63;2.43;;;;;;;7.29;97.20;95278.31;5064923;28;20202;-71
2021/12/28 08:05:59;;;;;;;2.43;2.27;;;;;;;7.34;96.81;95297.06;5069435;28;20206;-69
2021/12/28 08:08:25;;;;;;;2.60;2.40;;;;;;;7.43;97.14;95311.94;5070052;28;20210;-70
2021/12/28 08:10:52;;;;;;;2.47;2.27;;;;;;;7.52;95.40;95278.59;5071797;28;20202;-70
2021/12/28 08:13:18;;;;;;;2.93;2.50;;;;;;;7.43;96.14;95271.66;5073920;28;20223;-73
2021/12/28 08:15:45;;;;;;;2.57;2.37;;;;;;;7.47;96.66;95270.34;5076070;28;20241;-69
2021/12/28 08:18:12;;;;;;;2.40;2.20;;;;;;;7.44;96.95;95250.44;5086062;28;20212;-71
2021/12/28 08:20:40;;;;;;;2.40;2.20;;;;;;;7.55;97.10;95278.25;5094361;28;20206;-71
2021/12/28 08:23:07;;;;;;;2.83;2.63;;;;;;;7.56;96.60;95289.59;5091104;28;20204;-72
2021/12/28 08:25:34;;;;;;;2.67;2.47;;;;;;;7.52;96.98;95294.38;5090002;28;20202;-69
2021/12/28 08:28:04;;;;;;;2.43;2.23;;;;;;;7.61;97.46;95303.13;5091015;28;20209;-71
2021/12/28 08:30:34;;;;;;;3.30;2.10;;;;;;;7.68;98.74;95304.97;5091404;28;20186;-73
2021/12/28 08:33:01;;;;;;;2.10;2.00;;;;;;;7.75;98.02;95308.63;5089766;28;20270;-72
2021/12/28 08:35:28;;;;;;;2.77;2.57;;;;;;;7.73;96.82;95315.84;5076290;28;20237;-70
2021/12/28 08:37:55;;;;;;;2.07;1.87;;;;;;;7.77;97.62;95317.16;5090670;28;20210;-70
2021/12/28 08:40:22;;;;;;;2.10;2.00;;;;;;;7.79;98.34;95307.31;5090617;28;20210;-72
2021/12/28 08:42:48;;;;;;;2.37;2.27;;;;;;;7.83;97.46;95321.00;5089768;28;20199;-72
2021/12/28 08:45:15;;;;;;;2.20;2.10;;;;;;;7.83;97.84;95328.88;5089220;28;20206;-73
2021/12/28 08:47:42;;;;;;;2.13;2.03;;;;;;;7.75;99.02;95326.22;5091042;28;20241;-72
2021/12/28 08:50:10;;;;;;;1.97;1.87;;;;;;;7.78;99.64;95320.63;5070907;28;20195;-73
2021/12/28 08:52:37;;;;;;;2.10;2.00;;;;;;;7.98;97.57;95338.63;5069804;28;20207;-72
2021/12/28 08:55:06;;;;;;;2.30;2.10;;;;;;;8.00;96.49;95349.84;5068193;28;20565;-69
2021/12/28 08:57:33;;;;;;;2.20;2.00;;;;;;;7.99;95.42;95335.03;5066642;28;20203;-69
2021/12/28 08:59:59;;;;;;;1.97;1.80;;;;;;;8.28;94.34;95328.53;5072053;28;20222;-72
2021/12/28 09:02:26;;;;;;;1.80;1.70;;;;;;;8.15;95.60;95322.91;5080847;28;20211;-73
2021/12/28 09:04:53;;;;;;;1.70;1.60;;;;;;;8.14;96.30;95337.88;5076507;28;20202;-70
2021/12/28 09:07:20;;;;;;;1.47;1.37;;;;;;;8.21;95.25;95332.78;5077773;28;20200;-70
2021/12/28 09:09:47;;;;;;;1.90;1.80;;;;;;;8.12;96.58;95313.50;5080174;28;20198;-70
2021/12/28 09:12:14;;;;;;;1.80;1.70;;;;;;;8.20;97.05;95317.97;5076841;28;20199;-70
2021/12/28 09:14:41;;;;;;;1.60;1.50;;;;;;;8.29;96.29;95322.31;5057235;28;20313;-71
2021/12/28 09:17:07;;;;;;;2.63;1.63;;;;;;;8.37;95.90;95332.84;5058646;28;20562;-70
2021/12/28 09:19:34;;;;;;;1.63;1.40;;;;;;;8.31;95.88;95336.97;5084159;28;20197;-70
2021/12/28 09:22:01;;;;;;;1.63;1.53;;;;;;;8.24;96.27;95332.47;5098290;28;20231;-69
2021/12/28 09:24:27;;;;;;;1.87;1.50;;;;;;;8.34;96.38;95348.97;5077670;28;20200;-71
2021/12/28 09:26:54;;;;;;;2.40;2.20;;;;;;;8.30;95.47;95350.28;5071611;28;20207;-72
2021/12/28 09:29:25;;;;;;;2.13;2.03;;;;;;;8.41;95.19;95360.53;5070805;28;20195;-70
2021/12/28 09:31:52;;;;;;;2.10;2.00;;;;;;;8.43;95.26;95348.03;5068673;28;20203;-73
2021/12/28 09:34:18;;;;;;;2.00;1.83;;;;;;;8.48;95.69;95348.34;5047977;28;20219;-74
2021/12/28 09:36:45;;;;;;;1.83;1.73;;;;;;;8.37;94.71;95338.13;5064308;28;20224;-70
2021/12/28 09:39:12;;;;;;;1.73;1.63;;;;;;;8.61;93.84;95343.44;5075814;28;20295;-70
2021/12/28 09:41:38;;;;;;;1.50;1.40;;;;;;;8.63;94.55;95353.81;5081081;28;20210;-70
2021/12/28 09:44:05;;;;;;;1.20;1.20;;;;;;;8.66;93.89;95349.06;5064659;28;20437;-71
2021/12/28 09:46:33;;;;;;;1.37;1.30;;;;;;;8.59;94.92;95347.22;5062199;28;20227;-71
2021/12/28 09:49:01;;;;;;;1.43;1.33;;;;;;;8.71;94.69;95357.31;5056540;28;20206;-73
2021/12/28 09:51:27;;;;;;;1.83;1.47;;;;;;;8.73;94.50;95338.69;5080487;28;20229;-73
2021/12/28 09:53:54;;;;;;;1.43;1.33;;;;;;;8.70;95.08;95350.38;5080112;28;20230;-72
2021/12/28 09:56:20;;;;;;;1.70;1.60;;;;;;;8.72;96.87;95353.66;5068046;28;20203;-70
2021/12/28 09:58:47;;;;;;;1.43;1.33;;;;;;;8.75;96.00;95363.06;5082193;28;20217;-72
2021/12/28 10:01:13;;;;;;;1.40;1.40;;;;;;;8.69;95.88;95369.81;5078372;28;20211;-72
2021/12/28 10:03:41;;;;;;;1.33;1.33;;;;;;;8.66;96.28;95366.66;5058862;28;20216;-73
2021/12/28 10:06:16;;;;;;;1.43;1.30;;;;;;;8.71;95.89;95369.66;5064092;28;20207;-73
2021/12/28 10:08:44;;;;;;;2.43;1.60;;;;;;;8.74;94.81;95371.97;5049027;28;20654;-72
2021/12/28 10:11:10;;;;;;;1.23;1.13;;;;;;;8.71;95.84;95365.22;5066884;28;20209;-72
2021/12/28 10:13:37;;;;;;;1.60;1.50;;;;;;;8.68;96.33;95360.25;5080220;28;20222;-72
2021/12/28 10:16:03;;;;;;;2.20;2.00;;;;;;;8.70;96.69;95353.00;5086463;28;20199;-71
2021/12/28 10:18:30;;;;;;;1.50;1.40;;;;;;;8.79;95.18;95346.75;5066833;28;20214;-72
2021/12/28 10:20:59;;;;;;;1.30;1.30;;;;;;;8.83;94.36;95340.16;5061892;28;20211;-70
2021/12/28 10:23:28;;;;;;;1.50;1.40;;;;;;;8.86;95.68;95347.75;5057811;28;20219;-72
2021/12/28 10:25:56;;;;;;;1.57;1.10;;;;;;;8.94;95.16;95334.56;5058774;28;20203;-73
2021/12/28 10:28:24;;;;;;;1.37;1.27;;;;;;;9.15;95.45;95339.34;5056992;28;20207;-69
2021/12/28 10:30:53;;;;;;;1.00;1.00;;;;;;;9.30;95.11;95331.59;5057845;28;20207;-72
2021/12/28 10:33:21;;;;;;;1.17;1.10;;;;;;;9.46;93.85;95336.81;5056332;28;20595;-70
2021/12/28 10:35:50;;;;;;;1.03;1.00;;;;;;;9.61;94.13;95324.59;5056670;28;20210;-73
2021/12/28 10:38:20;;;;;;;1.03;0.93;;;;;;;9.64;93.13;95328.69;5056355;28;20207;-72
2021/12/28 10:40:49;;;;;;;1.30;1.20;;;;;;;9.63;92.05;95332.34;5056705;28;20203;-72
2021/12/28 10:43:18;;;;;;;2.03;1.10;;;;;;;9.65;93.39;95327.72;5055965;28;20218;-69
2021/12/28 10:45:46;;;;;;;1.20;1.07;;;;;;;9.67;93.51;95329.19;5056276;28;20207;-69
2021/12/28 10:48:16;;;;;;;1.40;1.30;;;;;;;9.73;91.79;95325.06;5056201;28;20199;-70
2021/12/28 10:50:45;;;;;;;1.20;1.10;;;;;;;9.72;92.82;95331.31;5064753;28;20206;-71
2021/12/28 10:53:18;;;;;;;1.00;1.00;;;;;;;9.73;92.77;95331.16;5067035;28;20203;-71
2021/12/28 10:55:48;;;;;;;1.90;1.10;;;;;;;9.77;93.87;95319.28;5056112;28;20211;-69
2021/12/28 10:58:22;;;;;;;2.63;1.00;;;;;;;9.60;93.67;95319.50;5074017;28;20276;-71
2021/12/28 11:00:49;;;;;;;1.10;0.80;;;;;;;9.70;93.40;95317.47;5071244;28;20218;-72
2021/12/28 11:03:23;;;;;;;1.73;1.63;;;;;;;9.75;93.13;95304.56;5062799;28;20207;-71
2021/12/28 11:05:51;;;;;;;1.00;1.00;;;;;;;9.80;92.49;95300.44;5060339;28;20206;-69
2021/12/28 11:08:19;;;;;;;1.00;1.00;;;;;;;9.81;93.73;95303.91;5047466;28;20210;-71
2021/12/28 11:10:48;;;;;;;1.17;1.10;;;;;;;9.85;93.48;95310.47;5059460;28;20210;-71
2021/12/28 11:13:16;;;;;;;2.07;1.60;;;;;;;9.87;94.59;95292.66;5055738;28;20622;-73
2021/12/28 11:15:44;;;;;;;2.20;1.43;;;;;;;9.90;94.97;95290.50;5055796;28;20294;-71
2021/12/28 11:18:22;;;;;;;1.87;1.17;;;;;;;10.02;94.20;95295.41;5055655;28;20247;-71
2021/12/28 11:20:49;;;;;;;1.27;1.10;;;;;;;10.04;93.85;95294.22;5055204;28;20665;-73
2021/12/28 11:23:18;;;;;;;1.10;1.10;;;;;;;10.03;92.80;95297.84;5055989;28;20207;-71
2021/12/28 11:25:44;;;;;;;1.33;1.07;;;;;;;10.00;93.49;95291.09;5055783;28;20211;-69
2021/12/28 11:28:18;;;;;;;0.97;0.97;;;;;;;10.13;93.40;95281.81;5055537;28;20203;-72
2021/12/28 11:31:01;;;;;;;1.00;1.00;;;;;;;10.15;93.64;95285.13;5054192;28;20191;-69
2021/12/28 11:33:28;;;;;;;1.10;0.93;;;;;;;10.10;94.75;95280.31;5054836;28;20243;-72
2021/12/28 11:35:55;;;;;;;1.90;1.00;;;;;;;10.09;95.05;95291.06;5055259;28;20206;-69
2021/12/28 11:38:21;;;;;;;3.63;2.07;;;;;;;10.11;95.59;95278.50;5054663;28;20211;-72
2021/12/28 11:40:48;;;;;;;1.10;1.00;;;;;;;10.04;94.54;95281.03;5055047;28;20273;-70